Flight Track Log - Related Links

Times and Time Zones

All times are in EDT time to prevent confusion due to time zone crossing. See the UAL582 flight status page for this flight to view local times or setup timezone preferences in your user account.

Time Position Orientation Groundspeed Altitude Reporting Facility
EDT Latitude Longitude Course Direction KTS MPH feet Rate Location/Type
Sun 09:25:20 PM 41.9667 -87.8667 187° South 176 203 1,900  Level Chicago TRACON
Sun 09:26:20 PM 41.9167 -87.8167 143° Southeast 243 280 3,900 1,398 Climbing Chicago TRACON
Sun 09:27:00 PM 41.6728 -87.7639 180° South  Level Estimated
Sun 09:27:33 PM 41.8464 -87.7853 162° South 273 314 5,000  Level Chicago Center
Sun 09:28:00 PM 41.5698 -87.7166 176° South  Level Estimated
Sun 09:28:35 PM 41.7508 -87.7933 184° South 289 333 8,200  Level Chicago Center
Sun 09:29:00 PM 41.4820 -87.8027 216° Southwest  Level FlightAware Approximate
Sun 09:29:37 PM 41.6689 -87.8144 191° South 300 345 11,400  Level Chicago Center
Sun 09:30:00 PM 41.3792 -87.7546 187° South  Level Estimated
Sun 09:30:38 PM 41.5844 -87.8356 191° South 307 353 13,500  Level Chicago Center
Sun 09:31:40 PM 41.4833 -87.8603 190° South 362 417 14,900 1,887 Climbing Chicago Center
Sun 09:32:42 PM 41.3753 -87.8811 188° South 384 442 17,400 2,274 Climbing Chicago Center
Sun 09:33:44 PM 41.2644 -87.8917 184° South 393 452 19,600 1,887 Climbing Chicago Center
Sun 09:34:46 PM 41.1517 -87.8897 179° South 404 465 21,300 1,659 Climbing Chicago Center
Sun 09:35:47 PM 41.0364 -87.8869 179° South 412 474 23,000 1,756 Climbing Chicago Center
Sun 09:36:49 PM 40.8931 -87.8808 178° South 428 493 24,900 1,597 Climbing Chicago Center
Sun 09:37:51 PM 40.7725 -87.8772 179° South 433 498 26,300 1,306 Climbing Chicago Center
Sun 09:38:53 PM 40.6497 -87.8739 179° South 441 507 27,600 1,220 Climbing Chicago Center
Sun 09:39:54 PM 40.5250 -87.8694 178° South 449 517 28,800 1,171 Climbing Chicago Center
Sun 09:40:56 PM 40.3967 -87.8656 179° South 459 528 30,000 1,306 Climbing Chicago Center
Sun 09:41:58 PM 40.2683 -87.8622 179° South 463 533 31,500 976 Climbing Chicago Center
Sun 09:42:59 PM 40.1361 -87.8564 178° South 449 517 32,000 283 Climbing Chicago Center
Sun 09:43:44 PM 40.0325 -87.8533 179° South 454 522 32,000  Level Indianapolis Center
Sun 09:44:45 PM 39.9086 -87.8461 177° South 451 519 32,000  Level Indianapolis Center
Sun 09:45:46 PM 39.7828 -87.8422 179° South 452 520 32,000 787 Level Indianapolis Center
Sun 09:46:47 PM 39.6606 -87.8364 178° South 446 513 33,600 1,230 Climbing Indianapolis Center
Sun 09:47:48 PM 39.5394 -87.8303 178° South 440 506 34,500 689 Climbing Indianapolis Center
Sun 09:48:49 PM 39.4183 -87.8264 179° South 437 503 35,000 244 Climbing Indianapolis Center
Sun 09:49:51 PM 39.2936 -87.8203 178° South 431 496 35,000  Level Indianapolis Center
Sun 09:50:52 PM 39.1725 -87.8150 178° South 433 498 35,000  Level Indianapolis Center
Sun 09:51:53 PM 39.0278 -87.8086 178° South 430 495 35,000  Level Indianapolis Center
Sun 09:52:54 PM 38.9089 -87.8039 178° South 429 494 35,000  Level Indianapolis Center
Sun 09:53:55 PM 38.7914 -87.7986 178° South 424 488 35,000  Level Indianapolis Center
Sun 09:54:56 PM 38.6736 -87.7942 178° South 423 487 35,000  Level Indianapolis Center
Sun 09:55:57 PM 38.5578 -87.7900 178° South 419 482 35,000  Level Indianapolis Center
Sun 09:56:59 PM 38.4414 -87.7836 178° South 419 482 35,000  Level Indianapolis Center
Sun 09:58:00 PM 38.3261 -87.7800 179° South 416 479 35,000  Level Indianapolis Center
Sun 09:59:01 PM 38.2119 -87.7750 178° South 413 475 35,000  Level Indianapolis Center
Sun 10:00:02 PM 38.0978 -87.7703 178° South 411 473 35,000  Level Indianapolis Center
Sun 10:01:03 PM 37.9836 -87.7636 177° South 410 472 35,000  Level Indianapolis Center
Sun 10:02:04 PM 37.8736 -87.7289 166° South 409 471 35,000  Level Indianapolis Center
Sun 10:03:05 PM 37.7575 -87.6572 154° Southeast 408 470 35,000  Level Indianapolis Center
Sun 10:04:06 PM 37.6556 -87.5953 154° Southeast 403 464 35,000  Level Indianapolis Center
Sun 10:05:08 PM 37.5547 -87.5322 154° Southeast 400 460 35,000  Level Indianapolis Center
Sun 10:06:09 PM 37.4544 -87.4744 155° Southeast 395 455 35,000  Level Indianapolis Center
Sun 10:07:10 PM 37.3547 -87.4142 154° Southeast 395 455 35,000  Level Indianapolis Center
Sun 10:08:11 PM 37.2544 -87.3536 154° Southeast 395 455 35,000  Level Indianapolis Center
Sun 10:09:12 PM 37.1525 -87.2922 154° Southeast 401 461 35,000  Level Indianapolis Center
Sun 10:09:50 PM 37.0783 -87.2472 154° Southeast 392 451 35,000  Level Memphis Center
Sun 10:10:50 PM 36.9747 -87.1836 154° Southeast 406 467 35,000 -50 Level Memphis Center
Sun 10:11:50 PM 36.8731 -87.1228 154° Southeast 406 467 34,900 -50 Descending Memphis Center
Sun 10:12:50 PM 36.7756 -87.0647 154° Southeast 396 456 34,900  Level Memphis Center
Sun 10:13:50 PM 36.6739 -87.0042 154° Southeast 396 456 34,900 50 Level Memphis Center
Sun 10:14:50 PM 36.5764 -86.9461 154° Southeast 388 447 35,000 50 Climbing Memphis Center
Sun 10:15:50 PM 36.4831 -86.8883 154° Southeast 381 438 35,000  Level Memphis Center
Sun 10:16:50 PM 36.3858 -86.8356 156° South 389 448 35,000  Level Memphis Center
Sun 10:17:50 PM 36.2922 -86.7753 153° Southeast 396 456 35,000  Level Memphis Center
Sun 10:18:50 PM 36.1864 -86.7131 155° Southeast 391 450 35,000 -50 Level Memphis Center
Sun 10:19:50 PM 36.0908 -86.6608 156° South 386 444 34,900  Descending Memphis Center
Sun 10:20:50 PM 35.9917 -86.6142 159° South 381 438 35,000 35 Climbing Memphis Center
Sun 10:22:40 PM 35.8161 -86.5253 158° South 389 448 35,000  Level Atlanta Center
Sun 10:23:40 PM 35.7172 -86.4764 158° South 389 448 35,000  Level Atlanta Center
Sun 10:24:40 PM 35.6222 -86.4275 157° South 384 442 35,000  Level Atlanta Center
Sun 10:25:40 PM 35.5331 -86.3867 160° South 379 436 35,000  Level Atlanta Center
Sun 10:26:40 PM 35.4381 -86.3381 157° South 374 430 35,000  Level Atlanta Center
Sun 10:27:40 PM 35.3408 -86.2919 159° South 369 425 35,000  Level Atlanta Center
Sun 10:28:40 PM 35.2458 -86.2411 156° South 369 425 35,000  Level Atlanta Center
Sun 10:29:40 PM 35.1528 -86.1981 159° South 364 419 35,000  Level Atlanta Center
Sun 10:30:40 PM 35.0492 -86.1497 159° South 359 413 35,000  Level Atlanta Center
Sun 10:31:40 PM 34.9581 -86.1067 159° South 371 427 35,000  Level Atlanta Center
Sun 10:32:40 PM 34.8631 -86.0564 157° South 377 434 35,000  Level Atlanta Center
Sun 10:33:40 PM 34.7656 -86.0111 159° South 372 428 35,000 -50 Level Atlanta Center
Sun 10:34:40 PM 34.6744 -85.9658 158° South 367 422 34,900  Descending Atlanta Center
Sun 10:35:40 PM 34.5750 -85.9183 159° South 372 428 35,000 50 Climbing Atlanta Center
Sun 10:36:40 PM 34.4778 -85.8733 159° South 372 428 35,000  Level Atlanta Center
Sun 10:37:40 PM 34.3803 -85.8258 158° South 372 428 35,000  Level Atlanta Center
Sun 10:38:40 PM 34.2744 -85.7808 161° South 363 418 35,000  Level Atlanta Center
Sun 10:39:40 PM 34.1750 -85.7336 159° South 373 429 35,000  Level Atlanta Center
Sun 10:40:40 PM 34.0775 -85.6892 159° South 373 429 35,000  Level Atlanta Center
Sun 10:41:40 PM 33.9800 -85.6419 158° South 373 429 35,000  Level Atlanta Center
Sun 10:42:40 PM 33.8806 -85.5953 159° South 373 429 35,000  Level Atlanta Center
Sun 10:43:40 PM 33.7789 -85.5483 159° South 379 436 35,000  Level Atlanta Center
Sun 10:44:40 PM 33.6792 -85.5042 160° South 385 443 35,000  Level Atlanta Center
Sun 10:45:40 PM 33.5775 -85.4550 158° South 385 443 35,000  Level Atlanta Center
Sun 10:46:40 PM 33.4736 -85.4086 160° South 390 449 35,000  Level Atlanta Center
Sun 10:47:40 PM 33.3781 -85.3647 159° South 381 438 35,000  Level Atlanta Center
Sun 10:48:40 PM 33.2742 -85.3133 158° South 386 444 35,000  Level Atlanta Center
Sun 10:49:40 PM 33.1744 -85.2672 159° South 386 444 35,000  Level Atlanta Center
Sun 10:50:40 PM 33.0747 -85.2214 159° South 394 453 35,000  Level Atlanta Center
Sun 10:51:40 PM 32.9811 -85.1806 160° South 394 453 35,000  Level Atlanta Center
Sun 10:52:40 PM 32.8667 -85.1344 161° South 394 453 35,000  Level Atlanta Center
Sun 10:53:40 PM 32.7731 -85.1086 167° South 389 448 35,000  Level Atlanta Center
Sun 10:54:40 PM 32.6689 -85.0753 165° South 389 448 35,000  Level Atlanta Center
Sun 10:55:40 PM 32.5608 -85.0369 163° South 390 449 35,000  Level Atlanta Center
Sun 10:56:40 PM 32.4547 -85.0014 164° South 397 457 35,000  Level Atlanta Center
Sun 10:58:16 PM 32.2836 -84.9469 165° South 398 458 35,000  Level Jacksonville Center
Sun 10:59:16 PM 32.1775 -84.9103 164° South 398 458 35,000  Level Jacksonville Center
Sun 11:00:16 PM 32.0717 -84.8736 164° South 398 458 35,000  Level Jacksonville Center
Sun 11:01:16 PM 31.9658 -84.8394 165° South 398 458 35,000  Level Jacksonville Center
Sun 11:02:16 PM 31.8475 -84.8003 164° South 398 458 35,000  Level Jacksonville Center
Sun 11:03:16 PM 31.7414 -84.7664 165° South 398 458 35,000  Level Jacksonville Center
Sun 11:04:16 PM 31.6292 -84.7300 165° South 398 458 35,000  Level Jacksonville Center
Sun 11:05:16 PM 31.5192 -84.6936 164° South 403 464 35,000  Level Jacksonville Center
Sun 11:06:16 PM 31.4047 -84.6547 164° South 414 476 35,000  Level Jacksonville Center
Sun 11:07:16 PM 31.2944 -84.6189 164° South 414 476 35,000  Level Jacksonville Center
Sun 11:08:16 PM 31.1844 -84.5828 164° South 414 476 35,000  Level Jacksonville Center
Sun 11:09:16 PM 31.0744 -84.5372 160° South 414 476 35,000  Level Jacksonville Center
Sun 11:10:16 PM 30.9708 -84.4747 153° Southeast 420 483 35,000  Level Jacksonville Center
Sun 11:11:16 PM 30.8631 -84.4125 154° Southeast 426 490 35,000  Level Jacksonville Center
Sun 11:12:16 PM 30.7572 -84.3503 153° Southeast 431 496 35,000  Level Jacksonville Center
Sun 11:13:16 PM 30.6514 -84.2883 153° Southeast 426 490 35,000  Level Jacksonville Center
Sun 11:14:16 PM 30.5478 -84.2264 153° Southeast 421 484 35,000 -50 Level Jacksonville Center
Sun 11:15:16 PM 30.4564 -84.1697 152° Southeast 421 484 34,900 -50 Descending Jacksonville Center
Sun 11:16:16 PM 30.3506 -84.1083 153° Southeast 416 479 34,900 50 Level Jacksonville Center
Sun 11:17:16 PM 30.2447 -84.0467 153° Southeast 422 486 35,000  Climbing Jacksonville Center
Sun 11:18:16 PM 30.1367 -83.9853 154° Southeast 422 486 34,900 -50 Descending Jacksonville Center
Sun 11:19:16 PM 30.0306 -83.9242 153° Southeast 422 486 34,900  Level Jacksonville Center
Sun 11:20:16 PM 29.9267 -83.8633 153° Southeast 422 486 34,900  Level Jacksonville Center
Sun 11:21:16 PM 29.8228 -83.8047 154° Southeast 422 486 34,900  Level Jacksonville Center
Sun 11:22:16 PM 29.7189 -83.7439 153° Southeast 422 486 34,900  Level Jacksonville Center
Sun 11:23:16 PM 29.6128 -83.6833 154° Southeast 422 486 34,900  Level Jacksonville Center
Sun 11:24:16 PM 29.5086 -83.6228 153° Southeast 422 486 34,900 -100 Level Jacksonville Center
Sun 11:25:16 PM 29.4025 -83.5625 154° Southeast 422 486 34,700 -1,200 Descending Jacksonville Center
Sun 11:26:16 PM 29.2983 -83.5022 153° Southeast 422 486 32,500 -2,300 Descending Jacksonville Center
Sun 11:27:16 PM 29.1964 -83.4444 154° Southeast 416 479 30,100 -2,550 Descending Jacksonville Center
Sun 11:28:16 PM 29.1050 -83.3678 144° Southeast 411 473 27,400 -2,900 Descending Jacksonville Center
Sun 11:29:16 PM 29.0217 -83.2844 139° Southeast 406 467 24,300 -3,100 Descending Jacksonville Center
Sun 11:30:16 PM 28.9425 -83.2011 137° Southeast 395 455 21,200 -2,600 Descending Jacksonville Center
Sun 11:31:16 PM 28.8739 -83.1108 131° Southeast 379 436 19,100 -2,000 Descending Jacksonville Center
Sun 11:32:16 PM 28.8072 -83.0275 132° Southeast 373 429 17,200 -1,797 Descending Jacksonville Center
Sun 11:34:43 PM 28.6333 -82.8167 133° Southeast 344 396 12,900 -1,821 Descending Tampa TRACON
Sun 11:35:37 PM 28.5833 -82.7500 130° Southeast 330 380 11,100 -1,526 Descending Tampa TRACON
Sun 11:36:37 PM 28.5000 -82.7000 152° Southeast 305 351 10,000 -1,318 Descending Tampa TRACON
Sun 11:37:49 PM 28.4167 -82.6667 161° South 285 328 8,200 -1,478 Descending Tampa TRACON
Sun 11:38:55 PM 28.3500 -82.6333 156° South 279 321 6,600 -1,429 Descending Tampa TRACON
Sun 11:39:55 PM 28.2667 -82.5833 152° Southeast 273 314 5,200 -1,158 Descending Tampa TRACON
Sun 11:40:49 PM 28.2167 -82.5667 164° South 262 302 4,400 -842 Descending Tampa TRACON
Sun 11:41:49 PM 28.1500 -82.5333 156° South 221 254 3,600 -1,053 Descending Tampa TRACON
Sun 11:42:43 PM 28.1000 -82.5333 180° South 194 223 2,400 -1,158 Descending Tampa TRACON
Sun 11:43:43 PM 28.0500 -82.5333 180° South 156 180 1,400 -1,000 Descending Tampa TRACON

Login

Don't have an account? Register now (free) for customized features, flight alerts, and more!